Poindexter, Kentucky
Current Conditions -  °F | °C
As of 1:55 AM on Friday 19 Dec 2014 (Local Time) from KIOB Reporting Station
Overcast Overcast  
Wind Chill: 30°   Ceiling: 6000
Heat Index: 30°   Visibility: 10mi
Dew Point: 25°   Wind: 3mph
Humidity: 80%   Direction: 10°N
Pressure: 30.23"   Gusts: NA
Location:  38.4145°N, 84.2859°W
Report Text: KIOB 190655Z AUTO 01003KT 10SM BKN060 OVC070 M01/M04 A3023 RMK AO2
Loading
Personal Weather Stations






























Interactive Weather Map New forecast layout! Learn more

10-Day Weather Forecast

Advertisements
Track Severe Weather on mobile